createdAt,value
2019-04-28T00:00:35.435Z,310.67
2019-04-28T00:01:35.418Z,311.81
2019-04-28T00:02:35.418Z,311.28
2019-04-28T00:03:35.404Z,310.48
2019-04-28T00:04:35.403Z,310.24
2019-04-28T00:05:35.399Z,310.78
2019-04-28T00:06:35.357Z,310.79
2019-04-28T00:07:35.374Z,309.98
2019-04-28T00:08:35.382Z,310.70
2019-04-28T00:09:35.343Z,310.33
2019-04-28T00:10:35.333Z,310.30
2019-04-28T00:11:35.307Z,309.47
2019-04-28T00:12:35.301Z,312.52
2019-04-28T00:13:35.292Z,309.42
2019-04-28T00:14:35.295Z,310.47
2019-04-28T00:15:35.274Z,309.69
2019-04-28T00:16:35.287Z,310.69
2019-04-28T00:17:35.376Z,309.91
2019-04-28T00:18:35.251Z,309.41
2019-04-28T00:19:35.251Z,312.19
2019-04-28T00:20:35.219Z,310.51
2019-04-28T00:21:35.199Z,309.96
2019-04-28T00:22:35.185Z,309.26
2019-04-28T00:23:35.197Z,309.91
2019-04-28T00:24:35.175Z,310.34
2019-04-28T00:25:35.198Z,310.95
2019-04-28T00:26:35.164Z,310.71
2019-04-28T00:27:35.142Z,309.84
2019-04-28T00:28:35.152Z,309.98
2019-04-28T00:29:40.352Z,310.29
2019-04-28T00:30:36.122Z,312.42
2019-04-28T00:31:35.099Z,309.06
2019-04-28T00:32:35.112Z,310.55
2019-04-28T00:33:35.088Z,309.63
2019-04-28T00:34:35.068Z,313.03
2019-04-28T00:35:35.329Z,311.67
2019-04-28T00:36:35.055Z,311.20
2019-04-28T00:37:35.063Z,310.21
2019-04-28T00:38:35.039Z,310.40
2019-04-28T00:39:35.171Z,309.27
2019-04-28T00:40:35.001Z,310.31
2019-04-28T00:41:34.995Z,311.53
2019-04-28T00:42:34.987Z,310.33
2019-04-28T00:43:34.975Z,311.33
2019-04-28T00:44:34.970Z,309.83
2019-04-28T00:45:34.956Z,309.35
2019-04-28T00:46:34.983Z,309.69
2019-04-28T00:47:34.930Z,311.07
2019-04-28T00:48:34.917Z,310.72
2019-04-28T00:49:34.923Z,309.84
2019-04-28T00:50:34.899Z,310.33
2019-04-28T00:51:34.886Z,312.67
2019-04-28T00:52:34.910Z,311.19
2019-04-28T00:53:34.878Z,309.51
2019-04-28T00:54:34.866Z,310.91
2019-04-28T00:55:34.866Z,310.03
2019-04-28T00:56:34.919Z,313.58
2019-04-28T00:57:34.878Z,309.87
2019-04-28T00:58:34.814Z,310.53
2019-04-28T00:59:34.794Z,310.31
2019-04-28T01:00:34.796Z,309.79
2019-04-28T01:01:34.776Z,310.10
2019-04-28T01:02:34.754Z,310.00
2019-04-28T01:03:34.777Z,313.13
2019-04-28T01:04:34.743Z,310.29
2019-04-28T01:05:34.733Z,311.16
2019-04-28T01:06:34.723Z,310.31
2019-04-28T01:07:34.720Z,310.60
2019-04-28T01:08:34.737Z,309.89
2019-04-28T01:09:34.685Z,310.62
2019-04-28T01:10:34.687Z,311.10
2019-04-28T01:11:34.673Z,309.92
2019-04-28T01:12:34.667Z,310.10
2019-04-28T01:13:34.652Z,310.38
2019-04-28T01:14:34.752Z,309.81
2019-04-28T01:15:34.624Z,309.88
2019-04-28T01:16:34.625Z,310.26
2019-04-28T01:17:34.613Z,310.06
2019-04-28T01:18:34.592Z,311.11
2019-04-28T01:19:34.595Z,311.90
2019-04-28T01:20:34.598Z,311.34
2019-04-28T01:21:34.574Z,308.88
2019-04-28T01:22:34.541Z,311.00
2019-04-28T01:23:34.534Z,310.11
2019-04-28T01:24:34.529Z,311.19
2019-04-28T01:25:34.528Z,310.06
2019-04-28T01:26:34.529Z,311.02
2019-04-28T01:27:34.500Z,310.41
2019-04-28T01:28:34.475Z,311.51
2019-04-28T01:29:34.496Z,309.94
2019-04-28T01:30:34.503Z,310.01
2019-04-28T01:31:34.476Z,309.68
2019-04-28T01:32:34.447Z,311.00
2019-04-28T01:33:34.442Z,310.52
2019-04-28T01:34:34.422Z,309.98
2019-04-28T01:35:34.413Z,309.15
2019-04-28T01:36:34.426Z,310.12
2019-04-28T01:37:34.388Z,309.00
2019-04-28T01:38:34.370Z,310.40
2019-04-28T01:39:34.389Z,309.61
2019-04-28T01:40:34.351Z,310.18
2019-04-28T01:41:34.350Z,309.35
2019-04-28T01:42:34.386Z,310.13
2019-04-28T01:43:34.353Z,310.20
2019-04-28T01:44:34.301Z,310.86
2019-04-28T01:45:34.346Z,310.34
2019-04-28T01:46:34.315Z,309.60
2019-04-28T01:47:34.271Z,309.01
2019-04-28T01:48:34.278Z,311.59
2019-04-28T01:49:34.253Z,309.50
2019-04-28T01:50:34.241Z,309.76
2019-04-28T01:51:34.243Z,309.98
2019-04-28T01:52:34.241Z,311.29
2019-04-28T01:53:34.215Z,309.43
2019-04-28T01:54:34.195Z,311.39
2019-04-28T01:55:34.227Z,309.62
2019-04-28T01:56:34.197Z,311.43
2019-04-28T01:57:34.174Z,308.80
2019-04-28T01:58:34.164Z,309.91
2019-04-28T01:59:34.150Z,309.87
2019-04-28T02:00:34.159Z,308.84
2019-04-28T02:01:34.142Z,311.94
2019-04-28T02:02:34.170Z,309.21
2019-04-28T02:03:34.138Z,311.04
2019-04-28T02:04:34.132Z,309.99
2019-04-28T02:05:34.108Z,309.15
2019-04-28T02:06:34.093Z,308.12
2019-04-28T02:07:34.054Z,309.36
2019-04-28T02:08:43.092Z,309.97
2019-04-28T02:09:34.041Z,309.38
2019-04-28T02:10:34.029Z,310.43
2019-04-28T02:11:34.017Z,310.98
2019-04-28T02:12:34.017Z,308.99
2019-04-28T02:13:34.056Z,309.44
2019-04-28T02:14:34.001Z,309.29
2019-04-28T02:15:33.975Z,309.63
2019-04-28T02:16:33.999Z,308.94
2019-04-28T02:17:33.969Z,310.77
2019-04-28T02:18:33.981Z,308.77
2019-04-28T02:19:33.940Z,308.53
2019-04-28T02:20:34.561Z,307.98
2019-04-28T02:21:33.901Z,309.00
2019-04-28T02:22:34.560Z,310.65
2019-04-28T02:23:33.905Z,308.96
2019-04-28T02:24:33.934Z,308.81
2019-04-28T02:25:33.890Z,310.72
2019-04-28T02:26:33.873Z,308.96
2019-04-28T02:27:34.530Z,308.67
2019-04-28T02:28:33.866Z,309.13
2019-04-28T02:29:33.915Z,308.67
2019-04-28T02:30:45.546Z,308.97
2019-04-28T02:31:34.850Z,309.30
2019-04-28T02:32:33.847Z,308.96
2019-04-28T02:33:33.845Z,309.65
2019-04-28T02:34:33.821Z,310.27
2019-04-28T02:35:34.361Z,310.30
2019-04-28T02:36:33.759Z,309.14
2019-04-28T02:37:33.760Z,308.72
2019-04-28T02:38:34.291Z,310.21
2019-04-28T02:39:33.736Z,308.73
2019-04-28T02:40:33.725Z,309.80
2019-04-28T02:41:33.949Z,309.49
2019-04-28T02:42:34.535Z,309.52
2019-04-28T02:43:33.698Z,309.28
2019-04-28T02:44:35.231Z,309.28
2019-04-28T02:45:33.693Z,308.58
2019-04-28T02:46:33.676Z,308.75
2019-04-28T02:47:34.125Z,308.78
2019-04-28T02:48:34.542Z,309.80
2019-04-28T02:49:33.767Z,309.48
2019-04-28T02:50:34.539Z,308.56
2019-04-28T02:51:33.636Z,310.13
2019-04-28T02:52:33.578Z,309.17
2019-04-28T02:53:33.949Z,309.27
2019-04-28T02:54:33.573Z,308.70
2019-04-28T02:55:33.557Z,309.20
2019-04-28T02:56:33.567Z,308.66
2019-04-28T02:57:33.521Z,310.14
2019-04-28T02:58:33.565Z,309.90
2019-04-28T02:59:33.603Z,309.33
2019-04-28T03:00:33.499Z,309.82
2019-04-28T03:01:33.511Z,309.14
2019-04-28T03:02:33.491Z,309.99
2019-04-28T03:03:34.127Z,308.66
2019-04-28T03:04:33.473Z,308.75
2019-04-28T03:05:33.837Z,308.80
2019-04-28T03:06:42.150Z,309.25
2019-04-28T03:07:33.467Z,310.00
2019-04-28T03:08:33.436Z,309.65
2019-04-28T03:09:33.407Z,309.54
2019-04-28T03:10:33.424Z,309.29
2019-04-28T03:11:33.421Z,309.07
2019-04-28T03:12:33.357Z,309.95
2019-04-28T03:13:33.361Z,309.34
2019-04-28T03:14:33.381Z,309.78
2019-04-28T03:15:33.373Z,309.54
2019-04-28T03:16:33.418Z,310.85
2019-04-28T03:17:33.468Z,309.81
2019-04-28T03:18:33.314Z,309.93
2019-04-28T03:19:34.148Z,310.41
2019-04-28T03:20:33.284Z,309.46
2019-04-28T03:21:33.286Z,310.20
2019-04-28T03:22:33.784Z,309.37
2019-04-28T03:23:33.253Z,309.81
2019-04-28T03:24:33.265Z,309.34
2019-04-28T03:25:33.467Z,309.19
2019-04-28T03:26:33.248Z,309.68
2019-04-28T03:27:33.202Z,309.68
2019-04-28T03:28:33.601Z,310.66
2019-04-28T03:29:33.193Z,310.02
2019-04-28T03:30:34.062Z,311.51
2019-04-28T03:32:01.181Z,309.42
2019-04-28T03:32:45.485Z,308.75
2019-04-28T03:33:41.156Z,309.04
2019-04-28T03:34:36.600Z,309.60
2019-04-28T03:35:33.117Z,312.53
2019-04-28T03:36:33.641Z,308.29
2019-04-28T03:37:33.121Z,309.60
2019-04-28T03:38:33.156Z,310.14
2019-04-28T03:39:33.121Z,310.03
2019-04-28T03:40:33.752Z,309.82
2019-04-28T03:41:33.123Z,309.64
2019-04-28T03:42:33.044Z,309.97
2019-04-28T03:43:33.034Z,309.16
2019-04-28T03:44:33.850Z,309.44
2019-04-28T03:45:33.032Z,309.30
2019-04-28T03:46:33.010Z,311.15
2019-04-28T03:47:33.045Z,311.21
2019-04-28T03:48:33.882Z,310.83
2019-04-28T03:49:33.051Z,307.98
2019-04-28T03:50:32.956Z,308.94
2019-04-28T03:51:32.954Z,309.37
2019-04-28T03:52:32.940Z,308.48
2019-04-28T03:53:32.925Z,309.82
2019-04-28T03:54:32.906Z,309.21
2019-04-28T03:55:34.947Z,309.21
2019-04-28T03:56:32.927Z,309.42
2019-04-28T03:57:32.884Z,309.27
2019-04-28T03:58:32.867Z,309.56
2019-04-28T03:59:32.869Z,309.37
2019-04-28T04:00:32.838Z,309.40
2019-04-28T04:01:32.845Z,309.33
2019-04-28T04:02:32.824Z,310.31
2019-04-28T04:03:32.829Z,310.44
2019-04-28T04:04:32.820Z,309.59
2019-04-28T04:05:32.826Z,309.41
2019-04-28T04:06:32.791Z,309.10
2019-04-28T04:07:32.805Z,310.67
2019-04-28T04:08:32.767Z,309.38
2019-04-28T04:09:32.762Z,310.32
2019-04-28T04:10:32.753Z,310.59
2019-04-28T04:11:32.747Z,309.93
2019-04-28T04:12:32.721Z,309.16
2019-04-28T04:13:33.142Z,310.25
2019-04-28T04:14:32.715Z,309.45
2019-04-28T04:15:32.709Z,309.25
2019-04-28T04:16:32.680Z,309.20
2019-04-28T04:17:33.643Z,310.29
2019-04-28T04:18:32.659Z,309.85
2019-04-28T04:19:32.643Z,309.26
2019-04-28T04:20:32.645Z,310.16
2019-04-28T04:21:32.645Z,308.94
2019-04-28T04:22:32.630Z,310.35
2019-04-28T04:23:32.604Z,309.76
2019-04-28T04:24:32.595Z,309.86
2019-04-28T04:25:32.573Z,309.91
2019-04-28T04:26:33.543Z,310.23
2019-04-28T04:27:32.557Z,309.98
2019-04-28T04:28:34.603Z,310.13
2019-04-28T04:29:32.611Z,310.77
2019-04-28T04:30:32.538Z,309.87
2019-04-28T04:31:32.523Z,309.60
2019-04-28T04:32:33.874Z,310.33
2019-04-28T04:33:32.499Z,311.20
2019-04-28T04:34:32.506Z,309.06
2019-04-28T04:35:32.501Z,309.87
2019-04-28T04:36:32.479Z,309.94
2019-04-28T04:37:32.497Z,310.24
2019-04-28T04:38:32.499Z,310.17
2019-04-28T04:39:32.478Z,309.44
2019-04-28T04:40:32.462Z,309.95
2019-04-28T04:41:33.131Z,309.52
2019-04-28T04:42:32.440Z,310.88
2019-04-28T04:43:32.502Z,309.33
2019-04-28T04:44:32.386Z,311.19
2019-04-28T04:45:32.397Z,310.32
2019-04-28T04:46:32.386Z,311.09
2019-04-28T04:47:32.972Z,310.47
2019-04-28T04:48:32.358Z,309.49
2019-04-28T04:49:32.364Z,310.59
2019-04-28T04:50:32.319Z,309.46
2019-04-28T04:51:32.335Z,310.25
2019-04-28T04:52:32.310Z,310.25
2019-04-28T04:53:32.331Z,309.59
2019-04-28T04:54:33.669Z,311.10
2019-04-28T04:55:32.273Z,310.27
2019-04-28T04:56:32.295Z,309.56
2019-04-28T04:57:32.707Z,310.20
2019-04-28T04:58:32.353Z,311.41
2019-04-28T04:59:32.280Z,309.52
2019-04-28T05:00:32.223Z,310.06
2019-04-28T05:01:32.234Z,311.64
2019-04-28T05:02:33.106Z,311.16
2019-04-28T05:03:33.098Z,309.21
2019-04-28T05:04:32.261Z,310.30
2019-04-28T05:05:32.190Z,309.19
2019-04-28T05:06:32.171Z,310.25
2019-04-28T05:07:32.178Z,310.00
2019-04-28T05:08:32.115Z,309.77
2019-04-28T05:09:32.146Z,311.13
2019-04-28T05:10:32.141Z,309.53
2019-04-28T05:11:32.152Z,309.64
2019-04-28T05:12:32.679Z,310.26
2019-04-28T05:13:32.079Z,310.80
2019-04-28T05:14:32.128Z,310.78
2019-04-28T05:15:32.067Z,310.91
2019-04-28T05:16:32.052Z,310.65
2019-04-28T05:17:32.112Z,311.19
2019-04-28T05:18:32.056Z,310.65
2019-04-28T05:19:32.048Z,309.35
2019-04-28T05:20:32.002Z,312.18
2019-04-28T05:21:33.480Z,310.80
2019-04-28T05:22:31.990Z,310.87
2019-04-28T05:23:31.974Z,310.80
2019-04-28T05:24:31.993Z,311.33
2019-04-28T05:25:32.614Z,309.99
2019-04-28T05:26:31.950Z,310.10
2019-04-28T05:27:32.512Z,309.49
2019-04-28T05:28:36.462Z,310.48
2019-04-28T05:29:31.927Z,310.43
2019-04-28T05:30:34.958Z,311.25
2019-04-28T05:31:32.912Z,310.51
2019-04-28T05:32:42.070Z,310.25
2019-04-28T05:33:34.046Z,309.60
2019-04-28T05:34:31.950Z,310.03
2019-04-28T05:35:31.863Z,310.92
2019-04-28T05:36:40.763Z,310.10
2019-04-28T05:37:32.855Z,310.68
2019-04-28T05:38:31.842Z,309.97
2019-04-28T05:39:31.824Z,309.49
2019-04-28T05:40:31.817Z,310.63
2019-04-28T05:41:31.802Z,310.21
2019-04-28T05:42:31.800Z,311.16
2019-04-28T05:43:31.811Z,310.74
2019-04-28T05:44:32.165Z,309.59
2019-04-28T05:45:32.322Z,311.39
2019-04-28T05:46:31.739Z,310.73
2019-04-28T05:47:31.735Z,309.84
2019-04-28T05:48:32.658Z,311.00
2019-04-28T05:49:31.814Z,311.19
2019-04-28T05:50:31.707Z,309.89
2019-04-28T05:51:32.612Z,311.37
2019-04-28T05:52:31.718Z,311.25
2019-04-28T05:53:31.655Z,309.37
2019-04-28T05:54:31.698Z,310.97
2019-04-28T05:55:31.662Z,309.05
2019-04-28T05:56:31.643Z,310.29
2019-04-28T05:57:31.614Z,310.83
2019-04-28T05:58:31.625Z,310.22
2019-04-28T05:59:31.618Z,309.96
2019-04-28T06:00:31.616Z,310.18
2019-04-28T06:01:31.641Z,308.87
2019-04-28T06:02:31.577Z,309.21
2019-04-28T06:03:31.575Z,309.48
2019-04-28T06:04:31.535Z,310.45
2019-04-28T06:05:31.897Z,309.67
2019-04-28T06:06:31.529Z,310.69
2019-04-28T06:07:31.515Z,309.76
2019-04-28T06:08:31.505Z,311.72
2019-04-28T06:09:31.537Z,310.36
2019-04-28T06:10:31.463Z,310.15
2019-04-28T06:11:31.459Z,309.15
2019-04-28T06:12:31.978Z,309.12
2019-04-28T06:13:32.108Z,309.37
2019-04-28T06:14:31.471Z,309.05
2019-04-28T06:15:31.440Z,309.67
2019-04-28T06:16:31.409Z,309.65
2019-04-28T06:17:31.399Z,309.84
2019-04-28T06:18:31.447Z,311.02
2019-04-28T06:19:31.397Z,310.14
2019-04-28T06:20:31.386Z,309.25
2019-04-28T06:21:31.364Z,310.64
2019-04-28T06:22:31.375Z,309.54
2019-04-28T06:23:31.393Z,310.15
2019-04-28T06:24:32.119Z,310.16
2019-04-28T06:25:31.336Z,309.83
2019-04-28T06:26:31.306Z,310.54
2019-04-28T06:27:32.752Z,309.64
2019-04-28T06:28:31.279Z,309.75
2019-04-28T06:29:31.280Z,310.29
2019-04-28T06:30:31.269Z,310.10
2019-04-28T06:31:31.237Z,309.98
2019-04-28T06:32:31.227Z,310.48
2019-04-28T06:33:31.210Z,310.54
2019-04-28T06:34:31.227Z,312.07
2019-04-28T06:35:31.192Z,310.23
2019-04-28T06:36:31.192Z,310.39
2019-04-28T06:37:31.175Z,310.98
2019-04-28T06:38:31.180Z,310.87
2019-04-28T06:39:31.164Z,310.62
2019-04-28T06:40:31.146Z,309.87
2019-04-28T06:41:31.165Z,311.03
2019-04-28T06:42:31.145Z,310.58
2019-04-28T06:43:31.109Z,310.74
2019-04-28T06:44:31.099Z,310.77
2019-04-28T06:45:31.092Z,310.85
2019-04-28T06:46:31.121Z,311.05
2019-04-28T06:47:31.127Z,309.89
2019-04-28T06:48:31.101Z,311.25
2019-04-28T06:49:31.085Z,310.73
2019-04-28T06:50:31.110Z,310.37
2019-04-28T06:51:31.052Z,309.86
2019-04-28T06:52:31.076Z,310.15
2019-04-28T06:53:31.052Z,310.32
2019-04-28T06:54:31.690Z,309.99
2019-04-28T06:55:30.978Z,311.34
2019-04-28T06:56:31.620Z,310.28
2019-04-28T06:57:31.006Z,310.71
2019-04-28T06:58:30.987Z,310.40
2019-04-28T06:59:31.008Z,309.04
2019-04-28T07:00:30.943Z,309.33
2019-04-28T07:01:31.046Z,311.08
2019-04-28T07:02:30.990Z,310.35
2019-04-28T07:03:30.926Z,310.85
2019-04-28T07:04:30.904Z,310.81
2019-04-28T07:05:30.907Z,310.37
2019-04-28T07:06:30.867Z,309.80
2019-04-28T07:07:30.870Z,310.75
2019-04-28T07:08:30.861Z,309.18
2019-04-28T07:09:30.927Z,307.90
2019-04-28T07:10:30.869Z,308.83
2019-04-28T07:11:30.851Z,309.20
2019-04-28T07:12:30.805Z,310.17
2019-04-28T07:13:30.810Z,309.99
2019-04-28T07:14:30.798Z,309.54
2019-04-28T07:15:30.848Z,308.84
2019-04-28T07:16:30.788Z,309.34
2019-04-28T07:17:30.750Z,309.96
2019-04-28T07:18:30.762Z,309.67
2019-04-28T07:19:33.393Z,310.66
2019-04-28T07:20:30.750Z,309.92
2019-04-28T07:21:30.729Z,309.75
2019-04-28T07:22:30.693Z,310.81
2019-04-28T07:23:30.684Z,308.62
2019-04-28T07:24:30.694Z,309.94
2019-04-28T07:25:30.682Z,309.71
2019-04-28T07:26:30.685Z,309.31
2019-04-28T07:27:30.697Z,310.90
2019-04-28T07:28:31.622Z,309.70
2019-04-28T07:29:31.623Z,309.55
2019-04-28T07:30:30.630Z,308.96
2019-04-28T07:31:39.224Z,309.21
2019-04-28T07:32:39.795Z,308.89
2019-04-28T07:33:39.792Z,310.15
2019-04-28T07:34:39.330Z,311.45
2019-04-28T07:35:38.890Z,309.61
2019-04-28T07:36:39.419Z,309.35
2019-04-28T07:37:40.984Z,309.27
2019-04-28T07:38:30.581Z,310.92
2019-04-28T07:39:39.985Z,309.49
2019-04-28T07:40:31.411Z,308.24
2019-04-28T07:41:30.509Z,307.88
2019-04-28T07:42:30.487Z,309.78
2019-04-28T07:43:30.465Z,309.18
2019-04-28T07:44:30.459Z,310.04
2019-04-28T07:45:30.472Z,308.54
2019-04-28T07:46:31.412Z,309.35
2019-04-28T07:47:30.440Z,309.08
2019-04-28T07:48:30.429Z,310.34
2019-04-28T07:49:30.403Z,308.42
2019-04-28T07:50:30.420Z,309.61
2019-04-28T07:51:30.383Z,308.52
2019-04-28T07:52:30.425Z,310.10
2019-04-28T07:53:30.405Z,308.27
2019-04-28T07:54:30.437Z,311.03
2019-04-28T07:55:30.606Z,309.56
2019-04-28T07:56:30.391Z,311.18
2019-04-28T07:57:30.350Z,308.69
2019-04-28T07:58:30.445Z,308.05
2019-04-28T07:59:30.304Z,309.02
2019-04-28T08:00:30.340Z,309.44
2019-04-28T08:01:30.303Z,308.92
2019-04-28T08:02:30.302Z,309.04
2019-04-28T08:03:30.256Z,310.10
2019-04-28T08:04:30.331Z,308.77
2019-04-28T08:05:30.313Z,308.92
2019-04-28T08:06:30.292Z,310.96
2019-04-28T08:07:30.223Z,308.82
2019-04-28T08:08:30.265Z,309.54
2019-04-28T08:09:30.211Z,309.02
2019-04-28T08:11:39.803Z,300.44
2019-04-28T08:12:39.807Z,309.12
2019-04-28T08:13:39.814Z,309.01
2019-04-28T08:14:39.795Z,308.27
2019-04-28T08:15:39.786Z,308.76
2019-04-28T08:16:39.764Z,308.82
2019-04-28T08:17:39.759Z,308.29
2019-04-28T08:18:39.735Z,309.52
2019-04-28T08:19:39.746Z,307.79
2019-04-28T08:20:39.756Z,307.40
2019-04-28T08:21:39.717Z,307.79
2019-04-28T08:22:39.700Z,307.76
2019-04-28T08:23:47.010Z,308.63
2019-04-28T08:24:40.664Z,308.98
2019-04-28T08:25:39.671Z,308.10
2019-04-28T08:26:39.654Z,309.73
2019-04-28T08:27:39.668Z,309.44
2019-04-28T08:28:39.656Z,307.91
2019-04-28T08:29:39.644Z,308.77
2019-04-28T08:30:39.625Z,310.16
2019-04-28T08:31:39.643Z,308.39
2019-04-28T08:32:39.577Z,309.20
2019-04-28T08:33:39.576Z,309.82
2019-04-28T08:34:39.589Z,309.42
2019-04-28T08:35:39.559Z,309.62
2019-04-28T08:36:39.548Z,308.54
2019-04-28T08:37:39.554Z,308.75
2019-04-28T08:38:39.525Z,307.75
2019-04-28T08:39:39.518Z,307.49
2019-04-28T08:40:39.506Z,308.68
2019-04-28T08:41:39.495Z,308.76
2019-04-28T08:42:39.599Z,308.96
2019-04-28T08:43:39.489Z,309.51
2019-04-28T08:44:39.463Z,309.05
2019-04-28T08:45:39.455Z,307.67
2019-04-28T08:46:39.435Z,309.42
2019-04-28T08:47:39.433Z,309.68
2019-04-28T08:48:39.431Z,308.74
2019-04-28T08:49:39.406Z,309.32
2019-04-28T08:50:39.391Z,308.25
2019-04-28T08:51:39.396Z,310.08
2019-04-28T08:52:39.392Z,308.36
2019-04-28T08:53:39.420Z,308.79
2019-04-28T08:54:39.369Z,309.47
2019-04-28T08:55:39.425Z,307.77
2019-04-28T08:56:39.360Z,308.80
2019-04-28T08:57:39.463Z,309.48
2019-04-28T08:58:39.327Z,309.26
2019-04-28T08:59:39.296Z,308.79
2019-04-28T09:00:39.361Z,308.79
2019-04-28T09:01:39.268Z,309.70
2019-04-28T09:02:39.305Z,307.85
2019-04-28T09:03:39.340Z,308.62
2019-04-28T09:04:39.304Z,308.66
2019-04-28T09:05:39.757Z,309.14
2019-04-28T09:06:39.231Z,308.48
2019-04-28T09:07:39.224Z,307.44
2019-04-28T09:08:39.221Z,309.23
2019-04-28T09:09:39.205Z,308.66
2019-04-28T09:10:39.173Z,308.39
2019-04-28T09:11:39.172Z,308.59
2019-04-28T09:12:39.158Z,309.27
2019-04-28T09:13:39.152Z,308.48
2019-04-28T09:14:39.167Z,309.12
2019-04-28T09:15:39.125Z,309.08
2019-04-28T09:16:39.125Z,307.53
2019-04-28T09:17:39.103Z,307.50
2019-04-28T09:18:39.092Z,307.12
2019-04-28T09:19:39.146Z,307.57
2019-04-28T09:20:39.151Z,308.76
2019-04-28T09:21:39.617Z,308.71
2019-04-28T09:22:39.045Z,308.01
2019-04-28T09:23:39.041Z,308.38
2019-04-28T09:24:39.050Z,307.85
2019-04-28T09:25:39.025Z,307.53
2019-04-28T09:26:39.043Z,308.34
2019-04-28T09:27:39.002Z,307.39
2019-04-28T09:28:39.007Z,308.97
2019-04-28T09:29:38.978Z,308.02
2019-04-28T09:30:38.981Z,307.00
2019-04-28T09:31:38.958Z,307.85
2019-04-28T09:32:38.959Z,309.77
2019-04-28T09:33:38.928Z,308.71
2019-04-28T09:34:39.040Z,308.51
2019-04-28T09:35:38.916Z,307.76
2019-04-28T09:36:38.915Z,307.95
2019-04-28T09:37:38.883Z,308.63
2019-04-28T09:38:38.892Z,308.15
2019-04-28T09:39:38.867Z,308.38
2019-04-28T09:40:38.866Z,308.93
2019-04-28T09:41:38.859Z,306.96
2019-04-28T09:42:38.835Z,308.13
2019-04-28T09:43:38.831Z,306.52
2019-04-28T09:44:38.839Z,307.84
2019-04-28T09:45:38.800Z,306.25
2019-04-28T09:46:38.808Z,307.15
2019-04-28T09:47:38.799Z,307.38
2019-04-28T09:48:38.765Z,307.31
2019-04-28T09:49:38.762Z,305.55
2019-04-28T09:50:38.745Z,306.89
2019-04-28T09:51:38.755Z,306.89
2019-04-28T09:52:38.803Z,306.61
2019-04-28T09:53:38.730Z,307.17
2019-04-28T09:54:38.744Z,306.52
2019-04-28T09:55:38.706Z,306.85
2019-04-28T09:56:38.694Z,307.32
2019-04-28T09:57:38.687Z,307.53
2019-04-28T09:58:38.701Z,308.02
2019-04-28T09:59:38.662Z,308.27
2019-04-28T10:00:38.638Z,307.85
2019-04-28T10:01:38.622Z,305.66
2019-04-28T10:02:38.618Z,307.54
2019-04-28T10:03:38.647Z,306.47
2019-04-28T10:04:41.660Z,307.33
2019-04-28T10:05:38.610Z,307.53
2019-04-28T10:06:38.573Z,309.17
2019-04-28T10:07:38.563Z,307.93
2019-04-28T10:08:38.568Z,307.83
2019-04-28T10:09:38.550Z,307.61
2019-04-28T10:10:38.535Z,305.82
2019-04-28T10:11:38.527Z,306.73
2019-04-28T10:12:38.533Z,307.36
2019-04-28T10:13:38.527Z,306.93
2019-04-28T10:14:38.483Z,306.78
2019-04-28T10:15:38.480Z,307.57
2019-04-28T10:16:38.476Z,306.68
2019-04-28T10:17:38.476Z,306.40
2019-04-28T10:18:38.487Z,306.37
2019-04-28T10:19:38.425Z,306.68
2019-04-28T10:20:38.437Z,307.17
2019-04-28T10:21:38.411Z,307.15
2019-04-28T10:22:38.414Z,306.68
2019-04-28T10:23:38.388Z,308.09
2019-04-28T10:24:38.411Z,305.47
2019-04-28T10:25:38.400Z,303.80
2019-04-28T10:26:38.358Z,306.21
2019-04-28T10:27:38.352Z,306.18
2019-04-28T10:28:38.357Z,306.01
2019-04-28T10:29:38.367Z,306.59
2019-04-28T10:30:38.311Z,306.97
2019-04-28T10:31:38.337Z,307.53
2019-04-28T10:32:38.306Z,307.09
2019-04-28T10:33:38.284Z,306.12
2019-04-28T10:34:38.275Z,306.91
2019-04-28T10:35:38.279Z,307.66
2019-04-28T10:36:38.327Z,307.11
2019-04-28T10:37:38.251Z,306.04
2019-04-28T10:38:38.226Z,306.91
2019-04-28T10:39:38.243Z,307.44
2019-04-28T10:40:38.220Z,308.40
2019-04-28T10:41:38.214Z,308.97
2019-04-28T10:42:38.200Z,306.26
2019-04-28T10:43:38.177Z,308.41
2019-04-28T10:44:38.152Z,306.77
2019-04-28T10:45:38.174Z,306.88
2019-04-28T10:46:38.155Z,308.86
2019-04-28T10:47:38.151Z,308.93
2019-04-28T10:48:38.112Z,306.97
2019-04-28T10:49:38.131Z,306.98
2019-04-28T10:50:38.116Z,306.86
2019-04-28T10:51:38.111Z,307.43
2019-04-28T10:52:38.116Z,308.71
2019-04-28T10:53:38.095Z,307.76
2019-04-28T10:54:38.107Z,308.04
2019-04-28T10:55:38.065Z,307.61
2019-04-28T10:56:38.042Z,308.33
2019-04-28T10:57:38.036Z,307.15
2019-04-28T10:58:38.037Z,306.74
2019-04-28T10:59:38.020Z,308.92
2019-04-28T11:00:38.031Z,306.82
2019-04-28T11:01:37.976Z,309.39
2019-04-28T11:02:37.979Z,306.79
2019-04-28T11:03:37.962Z,307.48
2019-04-28T11:04:37.993Z,307.56
2019-04-28T11:05:37.983Z,307.70
2019-04-28T11:06:38.856Z,308.08
2019-04-28T11:07:37.960Z,308.44
2019-04-28T11:08:37.933Z,308.20
2019-04-28T11:09:37.944Z,308.69
2019-04-28T11:10:39.124Z,309.10
2019-04-28T11:11:37.888Z,307.09
2019-04-28T11:12:37.865Z,308.12
2019-04-28T11:13:37.864Z,308.32
2019-04-28T11:14:37.867Z,308.23
2019-04-28T11:15:37.890Z,307.60
2019-04-28T11:16:37.952Z,307.91
2019-04-28T11:17:37.844Z,307.86
2019-04-28T11:18:37.791Z,307.47
2019-04-28T11:19:37.787Z,307.43
2019-04-28T11:20:39.656Z,307.88
2019-04-28T11:21:37.816Z,308.18
2019-04-28T11:22:37.772Z,308.30
2019-04-28T11:23:37.997Z,307.69
2019-04-28T11:24:37.739Z,308.31
2019-04-28T11:25:37.728Z,307.73
2019-04-28T11:26:37.731Z,306.94
2019-04-28T11:27:37.723Z,307.87
2019-04-28T11:28:38.824Z,308.99
2019-04-28T11:29:37.685Z,306.15
2019-04-28T11:30:37.670Z,307.36
2019-04-28T11:31:37.680Z,308.26
2019-04-28T11:32:37.675Z,308.04
2019-04-28T11:33:37.691Z,308.40
2019-04-28T11:34:37.806Z,308.45
2019-04-28T11:35:37.626Z,308.70
2019-04-28T11:36:37.629Z,308.30
2019-04-28T11:37:37.608Z,307.02
2019-04-28T11:38:37.716Z,308.59
2019-04-28T11:39:37.592Z,308.44
2019-04-28T11:40:37.577Z,306.97
2019-04-28T11:41:37.620Z,307.61
2019-04-28T11:42:37.547Z,305.93
2019-04-28T11:43:37.537Z,306.66
2019-04-28T11:44:37.546Z,306.89
2019-04-28T11:45:37.529Z,306.95
2019-04-28T11:46:37.683Z,306.48
2019-04-28T11:47:37.500Z,306.23
2019-04-28T11:48:37.483Z,306.95
2019-04-28T11:49:37.481Z,307.80
2019-04-28T11:50:37.463Z,307.82
2019-04-28T11:51:37.879Z,307.30
2019-04-28T11:52:38.532Z,307.78
2019-04-28T11:53:37.478Z,307.69
2019-04-28T11:54:37.428Z,307.84
2019-04-28T11:55:37.430Z,307.47
2019-04-28T11:56:41.482Z,308.21
2019-04-28T11:57:37.409Z,306.48
2019-04-28T11:58:37.378Z,307.48
2019-04-28T11:59:37.401Z,307.79
2019-04-28T12:00:37.413Z,306.99
2019-04-28T12:01:37.444Z,308.56
2019-04-28T12:02:37.337Z,306.68
2019-04-28T12:03:37.341Z,307.74
2019-04-28T12:04:37.331Z,307.04
2019-04-28T12:05:38.495Z,306.60
2019-04-28T12:06:37.298Z,306.73
2019-04-28T12:07:37.270Z,306.95
2019-04-28T12:08:37.302Z,307.23
2019-04-28T12:09:37.261Z,307.32
2019-04-28T12:10:37.236Z,307.09
2019-04-28T12:11:37.227Z,307.64
2019-04-28T12:12:37.369Z,306.80
2019-04-28T12:13:37.221Z,306.99
2019-04-28T12:14:37.231Z,307.75
2019-04-28T12:15:37.200Z,307.26
2019-04-28T12:16:37.182Z,306.78
2019-04-28T12:17:37.365Z,306.71
2019-04-28T12:18:37.332Z,307.32
2019-04-28T12:19:37.169Z,307.05
2019-04-28T12:20:37.161Z,307.12
2019-04-28T12:21:37.128Z,307.06
2019-04-28T12:22:37.116Z,307.84
2019-04-28T12:23:37.127Z,308.24
2019-04-28T12:24:37.144Z,307.72
2019-04-28T12:25:37.071Z,307.26
2019-04-28T12:26:37.099Z,305.41
2019-04-28T12:27:37.071Z,307.41
2019-04-28T12:28:37.067Z,307.83
2019-04-28T12:29:37.083Z,305.93